Date,TemperatureHighF,TemperatureAvgF,TemperatureLowF,DewpointHighF,DewpointAvgF,DewpointLowF,HumidityHigh,HumidityAvg,HumidityLow,PressureMaxIn,PressureMinIn,WindSpeedMaxMPH,WindSpeedAvgMPH,GustSpeedMaxMPH,PrecipitationSumIn
2013-3-1,71,48,29,31,24,19,74,43,17,30.25,30.08,0,0,0,0.00
2013-3-2,61,45,31,31,27,22,73,51,29,30.37,30.21,0,0,0,0.00
2013-3-3,77,58,41,42,32,24,58,39,23,30.21,29.87,0,0,0,0.00
2013-3-4,92,68,52,51,45,40,80,48,21,29.87,29.67,0,0,0,0.00
2013-3-5,67,54,35,53,27,12,70,39,17,30.31,29.72,0,0,0,0.00
2013-3-6,67,45,26,23,18,12,62,37,17,30.38,30.16,0,0,0,0.00
2013-3-7,74,57,41,52,42,20,80,58,41,30.18,30.04,0,0,0,0.00
2013-3-8,63,59,56,60,55,51,90,87,77,30.09,29.96,0,0,0,0.06
2013-3-9,71,64,60,66,60,56,91,89,80,29.97,29.63,0,0,0,0.04
2013-3-10,64,56,41,61,41,31,91,60,37,30.09,29.70,0,0,0,0.69
2013-3-11,66,47,29,35,29,25,85,56,23,30.13,29.96,0,0,0,0.00
2013-3-12,82,60,46,39,33,25,55,38,20,30.18,30.02,0,0,0,0.00
2013-3-13,80,60,41,42,37,32,76,45,24,30.37,30.18,0,0,0,0.00
2013-3-14,79,62,46,53,45,34,86,57,32,30.32,30.17,0,0,0,0.00
2013-3-15,82,66,52,54,49,41,88,60,31,30.19,29.95,0,0,0,0.00
2013-3-16,85,68,56,60,54,49,88,65,33,29.96,29.72,0,0,0,0.00
2013-3-17,86,70,64,62,59,56,83,69,42,29.78,29.64,0,0,0,0.00
2013-3-18,88,73,61,62,52,40,89,54,22,29.92,29.67,0,0,0,0.00
2013-3-19,86,65,43,63,52,38,86,64,40,29.96,29.81,0,0,0,0.00
2013-3-20,73,60,51,53,45,36,90,63,27,30.20,29.95,0,0,0,0.16
2013-3-21,77,63,53,60,50,38,82,64,51,30.00,29.59,0,0,0,0.02
2013-3-22,90,72,60,65,61,48,89,70,42,29.74,29.60,0,0,0,0.00
2013-3-23,83,62,49,61,51,45,88,69,38,29.77,29.57,0,0,0,0.00
2013-3-24,62,50,37,57,32,23,87,53,27,30.12,29.66,0,0,0,0.00
2013-3-25,60,44,30,24,21,17,72,44,19,30.33,30.12,0,0,0,0.00
2013-3-26,70,48,28,27,22,18,70,40,18,30.41,30.22,0,0,0,0.00
2013-3-27,70,54,40,46,36,22,69,52,36,30.26,30.09,0,0,0,0.00
2013-3-28,71,62,54,58,53,46,82,74,61,30.15,30.07,0,0,0,0.00
2013-3-29,79,68,60,59,56,54,87,68,47,30.13,30.01,0,0,0,0.00
2013-3-30,84,70,62,62,58,-100,89,71,45,30.07,29.86,0,0,0,0.00
2013-3-31,85,69,57,64,60,53,88,75,43,29.94,29.80,0,0,0,0.06